Scroll down
FLIGHT INFORMATION
Alitalia

AZA618

At Arrival Gate

LIRF
 KBOS
DATE: 2021-03-19
GATE:  -
GATE DEPARTURE: 07:30
TAKEOFF: 07:41
DATE: 2021-03-19
GATE:  -
LANDING: 15:52
GATE ARRIVAL: 16:02
FLIGHT DATA
Crew: 
Speed: 
907 kph
Altitude: 
40,016 ft
Stage Length: 
6,568.8 km
Block Time: 
8.5 hrs
Flight Time: 
8.2 hrs
Fuel Used: 
53,849 kg
Cleared Route: LIRF PODOX DOBIM GIRAG AKUTI BABED PIGOS BARSO OKTET GIPNO BULOL PIBAT CACHI AVLON OKRIX AMODO COHPA RESMI TABOV PIGOP DITAL LGL ARGED SENLO JSY LIZAD NAKID LEDGO DOGAL 5520N 5630N 5740N 5650N JANJO TAFFY AJJAY KBOS
TRACK DATA
50,000 ft 1,000 kts
AIRCRAFT INFO AND CUMULATIVE STATS
Aircraft Type: 
B772
Registration: 
SELCAL: 
GPKS
MSN/LN: 
32781 / 459
Operator: 
Total Flights: 
2
Total Block Time: 
17.1 hrs
Total Flight Time: 
16.6 hrs
Total Fuel Used: 
115,146 kg
DATALINK LOG | Newest first | Current as of: 2022-08-18 17:02:18
LABEL SEQUENCE CONTENT Dn/Up
QD305716:02 25.1▼ Dn
QC193215:52▼ Dn
2U1852KBOS 171554Z 22007KT 10SM FEW110 08/M03 A3017 RMK AO2 SLP215 T00781028▲ Up
2S4603KBOS▼ Dn
UM202657CLEARED TO FL 400▲ Up
DM62646REQUEST FL 400 DUE TO A/C PERF▼ Dn
2U5442KBOS 171354Z 24008KT 10SM SCT100 05/M04 A3020 RMK AO2 SLP224 T00501039▲ Up
2S2141KBOS▼ Dn
UM204921CLEARED TO FL 380▲ Up
DM64911REQUEST FL 380 DUE TO A/C PERF▼ Dn
QB094207:41▼ Dn
QA395307:30 143.9▼ Dn
A32031CLEARED TO KBOS VIA POD8E PODOX T378 DOBIM UM616 PIGOS UM622 BARSO UM733 BULOL PIBAT UM976 OKRIX UH10 AMODO UM729 RESMI UN491 LGL UN502 JSY UN160 LIZAD N160 NAKID N83 LEDGO DOGAL NATA JANJO N558A TAFFY AJJAY OOSHN5. SQUAWK 4105.▲ Up
B32021LIRF KBOS M ▼ Dn
Q01818[LINK ACK]▲ Up
Q01818[LINK TEST]▼ Dn


AIRCRAFT HISTORY
FLIGHT DATE FLIGHT NO. ORIGIN DESTINATION CLEARED ROUTE BLOCK TIME FLIGHT TIME FUEL USED PILOT
2021-03-19AZA618LIRF KBOS LIRF PODOX DOBIM GIRAG AKUTI BABED PIGOS BARSO OKTET GIPNO BULOL PIBAT CACHI AVLON OKRIX AMODO COHPA RESMI TABOV PIGOP DITAL LGL ARGED SENLO JSY LIZAD NAKID LEDGO DOGAL 5520N 5630N 5740N 5650N JANJO TAFFY AJJAY KBOS8.5 hrs8.2 hrs118,716 lbMike Dryden
2021-02-27AZA1381SBRF LIRF SBRF AMBET VUKSU FNR UTRAM NEURA PUGUN NOISE ERETU MAROA DELAX BOTNO ORABI GUNET ETIBA BIPET DEREV LZR KORAL SONSO ESS NIRAL OSDAM ROMSO TNG BARPA XAVIR PIMOS RIXUR UNTOS ROLAS TOSGA RESTU ALT SUMMO MITOS BRUNO RUXET IZA TUKRO ASMOT PTC MHN MORSS RIPAL INPEK BAVON ORKUM ELSAG ALG MINKA POZZO ROMPO RUXOP BATOX TINTO VALMA LIRF8.6 hrs8.4 hrs135,137 lbMike Dryden